createdAt,value
2022-10-07T00:02:15.941Z,12.70
2022-10-07T00:04:46.698Z,12.70
2022-10-07T00:07:16.820Z,12.82
2022-10-07T00:09:46.691Z,12.69
2022-10-07T00:12:16.491Z,12.59
2022-10-07T00:14:49.059Z,12.66
2022-10-07T00:17:19.045Z,12.74
2022-10-07T00:19:48.951Z,12.74
2022-10-07T00:22:18.779Z,12.77
2022-10-07T00:24:48.745Z,12.73
2022-10-07T00:27:18.560Z,12.73
2022-10-07T00:29:51.057Z,12.57
2022-10-07T00:32:20.841Z,12.64
2022-10-07T00:34:50.683Z,12.66
2022-10-07T00:37:20.452Z,12.79
2022-10-07T00:39:50.205Z,12.83
2022-10-07T00:42:19.945Z,12.83
2022-10-07T00:44:52.334Z,12.76
2022-10-07T00:47:27.223Z,12.81
2022-10-07T00:50:01.427Z,12.75
2022-10-07T00:52:33.933Z,12.85
2022-10-07T00:55:07.842Z,12.79
2022-10-07T00:57:39.671Z,12.74
2022-10-07T01:00:13.763Z,12.53
2022-10-07T01:02:44.024Z,12.39
2022-10-07T01:05:16.987Z,12.62
2022-10-07T01:07:48.253Z,12.76
2022-10-07T01:10:20.397Z,12.64
2022-10-07T01:13:06.010Z,12.69
2022-10-07T01:15:42.361Z,12.79
2022-10-07T01:18:19.871Z,12.65
2022-10-07T01:20:58.052Z,12.74
2022-10-07T01:23:44.565Z,12.68
2022-10-07T01:26:47.979Z,12.61
2022-10-07T01:29:21.287Z,12.69
2022-10-07T01:31:56.877Z,12.64
2022-10-07T01:34:29.437Z,12.62
2022-10-07T01:37:03.120Z,12.57
2022-10-07T01:39:40.324Z,12.72
2022-10-07T01:42:13.419Z,12.66
2022-10-07T01:44:44.103Z,12.58
2022-10-07T01:47:13.870Z,12.55
2022-10-07T01:49:43.665Z,12.52
2022-10-07T01:52:43.493Z,12.45
2022-10-07T01:55:38.370Z,12.52
2022-10-07T01:58:23.553Z,12.51
2022-10-07T02:01:01.817Z,12.45
2022-10-07T02:03:58.835Z,12.53
2022-10-07T02:06:38.571Z,12.51
2022-10-07T02:09:18.904Z,12.61
2022-10-07T02:11:57.760Z,12.56
2022-10-07T02:14:39.774Z,12.56
2022-10-07T02:17:16.975Z,12.37
2022-10-07T02:19:49.650Z,12.19
2022-10-07T02:22:21.352Z,12.21
2022-10-07T02:24:54.684Z,12.38
2022-10-07T02:27:28.206Z,12.55
2022-10-07T02:30:04.291Z,12.62
2022-10-07T02:32:36.984Z,12.46
2022-10-07T02:35:18.935Z,12.56
2022-10-07T02:37:52.421Z,12.53
2022-10-07T02:40:23.253Z,12.37
2022-10-07T02:42:59.879Z,12.33
2022-10-07T02:45:39.439Z,12.38
2022-10-07T02:48:18.308Z,12.55
2022-10-07T02:50:52.571Z,12.50
2022-10-07T02:53:24.476Z,12.57
2022-10-07T02:55:56.353Z,12.54
2022-10-07T02:58:28.460Z,12.64
2022-10-07T03:01:03.668Z,12.60
2022-10-07T03:03:33.627Z,12.44
2022-10-07T03:06:04.350Z,12.43
2022-10-07T03:08:35.017Z,12.49
2022-10-07T03:11:04.859Z,12.51
2022-10-07T03:13:35.381Z,12.47
2022-10-07T03:16:08.084Z,12.62
2022-10-07T03:18:37.816Z,12.72
2022-10-07T03:21:08.786Z,12.65
2022-10-07T03:23:38.618Z,12.34
2022-10-07T03:26:08.679Z,12.63
2022-10-07T03:28:39.016Z,12.51
2022-10-07T03:31:14.425Z,12.42
2022-10-07T03:33:44.316Z,12.31
2022-10-07T03:36:15.279Z,12.38
2022-10-07T03:38:45.024Z,12.48
2022-10-07T03:41:14.732Z,12.46
2022-10-07T03:43:44.610Z,12.48
2022-10-07T03:46:17.508Z,12.50
2022-10-07T03:48:47.288Z,12.48
2022-10-07T03:51:17.322Z,12.47
2022-10-07T03:53:47.040Z,12.62
2022-10-07T03:56:16.812Z,12.46
2022-10-07T03:58:46.523Z,12.55
2022-10-07T04:01:18.949Z,12.74
2022-10-07T04:03:48.991Z,12.78
2022-10-07T04:06:18.800Z,12.64
2022-10-07T04:08:49.464Z,12.61
2022-10-07T04:11:19.276Z,12.59
2022-10-07T04:13:49.054Z,12.45
2022-10-07T04:16:22.339Z,12.66
2022-10-07T04:18:52.098Z,12.75
2022-10-07T04:21:21.799Z,12.80
2022-10-07T04:23:51.755Z,12.60
2022-10-07T04:26:21.609Z,12.48
2022-10-07T04:28:51.772Z,12.60
2022-10-07T04:31:24.343Z,12.60
2022-10-07T04:33:54.167Z,12.52
2022-10-07T04:36:25.115Z,12.61
2022-10-07T04:38:54.925Z,12.57
2022-10-07T04:41:24.667Z,12.61
2022-10-07T04:43:57.804Z,12.42
2022-10-07T04:46:30.537Z,12.51
2022-10-07T04:49:00.448Z,12.59
2022-10-07T04:51:31.311Z,12.73
2022-10-07T04:54:01.177Z,12.69
2022-10-07T04:56:31.517Z,12.72
2022-10-07T04:59:01.445Z,12.69
2022-10-07T05:01:33.791Z,12.74
2022-10-07T05:04:03.825Z,12.65
2022-10-07T05:06:33.661Z,12.64
2022-10-07T05:09:03.396Z,12.62
2022-10-07T05:11:33.131Z,12.52
2022-10-07T05:14:03.397Z,12.56
2022-10-07T05:16:35.885Z,12.67
2022-10-07T05:19:05.620Z,12.62
2022-10-07T05:21:36.063Z,12.47
2022-10-07T05:24:05.764Z,12.53
2022-10-07T05:26:35.542Z,12.54
2022-10-07T05:29:07.060Z,12.59
2022-10-07T05:31:39.536Z,12.61
2022-10-07T05:34:09.373Z,12.55
2022-10-07T05:36:39.091Z,12.52
2022-10-07T05:39:09.057Z,12.74
2022-10-07T05:41:45.386Z,12.69
2022-10-07T05:44:15.930Z,12.64
2022-10-07T05:46:48.187Z,12.66
2022-10-07T05:49:17.957Z,12.78
2022-10-07T05:51:47.629Z,12.80
2022-10-07T05:54:17.398Z,12.78
2022-10-07T05:56:47.227Z,12.80
2022-10-07T05:59:17.234Z,12.65
2022-10-07T06:01:50.158Z,12.62
2022-10-07T06:04:20.153Z,12.72
2022-10-07T06:06:49.873Z,12.68
2022-10-07T06:09:32.033Z,12.63
2022-10-07T06:12:14.222Z,12.65
2022-10-07T06:14:44.092Z,12.69
2022-10-07T06:17:17.220Z,12.65
2022-10-07T06:19:46.983Z,12.63
2022-10-07T06:22:16.687Z,12.72
2022-10-07T06:24:46.430Z,12.79
2022-10-07T06:27:16.114Z,12.85
2022-10-07T06:29:45.850Z,12.86
2022-10-07T06:32:18.172Z,12.85
2022-10-07T06:34:47.995Z,12.98
2022-10-07T06:37:17.892Z,12.91
2022-10-07T06:39:47.651Z,13.07
2022-10-07T06:42:17.415Z,13.11
2022-10-07T06:44:47.202Z,13.09
2022-10-07T06:47:19.544Z,13.17
2022-10-07T06:49:49.286Z,13.21
2022-10-07T06:52:19.064Z,13.24
2022-10-07T06:54:48.778Z,13.58
2022-10-07T06:57:44.222Z,13.91
2022-10-07T07:00:09.791Z,14.17
2022-10-07T07:02:42.206Z,14.75
2022-10-07T07:05:17.185Z,15.95
2022-10-07T07:07:47.125Z,16.40
2022-10-07T07:10:17.535Z,16.31
2022-10-07T07:12:47.803Z,15.83
2022-10-07T07:15:17.983Z,15.82
2022-10-07T07:17:50.363Z,16.00
2022-10-07T07:20:20.201Z,15.84
2022-10-07T07:22:50.296Z,15.60
2022-10-07T07:25:20.166Z,15.31
2022-10-07T07:27:55.330Z,15.16
2022-10-07T07:30:28.047Z,14.92
2022-10-07T07:33:00.819Z,15.47
2022-10-07T07:35:32.957Z,16.75
2022-10-07T07:38:03.250Z,17.68
2022-10-07T07:40:33.020Z,18.47
2022-10-07T07:43:03.639Z,18.67
2022-10-07T07:45:34.423Z,19.05
2022-10-07T07:48:07.011Z,19.48
2022-10-07T07:50:36.756Z,19.01
2022-10-07T07:53:06.448Z,18.12
2022-10-07T07:55:36.074Z,18.07
2022-10-07T07:58:09.651Z,18.32
2022-10-07T08:00:41.264Z,18.19
2022-10-07T08:03:13.558Z,18.30
2022-10-07T08:05:43.217Z,18.50
2022-10-07T08:08:14.686Z,18.53
2022-10-07T08:10:47.286Z,18.57
2022-10-07T08:13:19.377Z,18.62
2022-10-07T08:15:49.229Z,18.63
2022-10-07T08:18:21.887Z,18.35
2022-10-07T08:20:59.335Z,18.30
2022-10-07T08:23:30.438Z,18.63
2022-10-07T08:26:01.132Z,18.35
2022-10-07T08:28:31.440Z,18.20
2022-10-07T08:31:05.497Z,18.25
2022-10-07T08:33:40.814Z,18.26
2022-10-07T08:36:14.437Z,18.30
2022-10-07T08:38:50.542Z,17.89
2022-10-07T08:41:36.595Z,18.40
2022-10-07T08:44:17.971Z,18.53
2022-10-07T08:46:55.001Z,18.62
2022-10-07T08:49:36.815Z,18.89
2022-10-07T08:52:18.307Z,18.79
2022-10-07T08:54:48.070Z,19.06
2022-10-07T08:57:24.661Z,19.12
2022-10-07T09:00:01.665Z,18.93
2022-10-07T09:02:36.411Z,19.04
2022-10-07T09:05:20.546Z,19.16
2022-10-07T09:07:54.862Z,19.03
2022-10-07T09:10:33.862Z,19.39
2022-10-07T09:13:09.651Z,19.54
2022-10-07T09:15:44.921Z,19.46
2022-10-07T09:18:22.393Z,19.72
2022-10-07T09:20:56.750Z,19.62
2022-10-07T09:23:31.520Z,19.41
2022-10-07T09:26:01.292Z,19.69
2022-10-07T09:28:34.080Z,19.54
2022-10-07T09:31:04.802Z,19.73
2022-10-07T09:33:44.532Z,19.78
2022-10-07T09:36:19.137Z,20.07
2022-10-07T09:38:52.518Z,19.85
2022-10-07T09:41:31.417Z,20.07
2022-10-07T09:44:05.443Z,20.27
2022-10-07T09:46:47.028Z,20.19
2022-10-07T09:49:43.734Z,19.80
2022-10-07T09:52:24.691Z,20.14
2022-10-07T09:54:56.658Z,20.55
2022-10-07T09:57:35.360Z,20.17
2022-10-07T10:00:27.699Z,19.82
2022-10-07T10:03:05.172Z,20.05
2022-10-07T10:05:37.209Z,20.39
2022-10-07T10:08:23.808Z,20.58
2022-10-07T10:10:55.432Z,20.74
2022-10-07T10:13:34.336Z,20.70
2022-10-07T10:16:05.288Z,21.02
2022-10-07T10:18:41.566Z,21.16
2022-10-07T10:21:32.865Z,21.56
2022-10-07T10:24:08.838Z,21.59
2022-10-07T10:27:00.262Z,21.98
2022-10-07T10:29:47.705Z,22.50
2022-10-07T10:32:28.635Z,23.03
2022-10-07T10:35:04.129Z,23.67
2022-10-07T10:37:53.374Z,24.06
2022-10-07T10:40:33.104Z,24.47
2022-10-07T10:43:16.624Z,24.87
2022-10-07T10:45:54.067Z,25.63
2022-10-07T10:48:36.352Z,25.70
2022-10-07T10:51:21.519Z,26.06
2022-10-07T10:54:01.116Z,25.91
2022-10-07T10:56:41.532Z,26.36
2022-10-07T10:59:37.688Z,27.14
2022-10-07T11:02:29.549Z,27.23
2022-10-07T11:05:03.651Z,27.25
2022-10-07T11:07:38.519Z,27.15
2022-10-07T11:10:20.493Z,26.76
2022-10-07T11:12:58.418Z,27.68
2022-10-07T11:15:32.785Z,27.45
2022-10-07T11:18:08.463Z,27.49
2022-10-07T11:20:44.797Z,27.65
2022-10-07T11:23:24.087Z,27.28
2022-10-07T11:26:00.348Z,27.47
2022-10-07T11:28:37.041Z,27.19
2022-10-07T11:31:12.135Z,26.10
2022-10-07T11:33:47.269Z,26.02
2022-10-07T11:36:20.708Z,26.08
2022-10-07T11:38:53.210Z,25.23
2022-10-07T11:41:30.963Z,25.09
2022-10-07T11:44:09.865Z,25.12
2022-10-07T11:46:43.424Z,24.69
2022-10-07T11:49:20.652Z,24.69
2022-10-07T11:51:57.791Z,24.45
2022-10-07T11:54:32.735Z,23.74
2022-10-07T11:57:03.655Z,23.60
2022-10-07T11:59:48.484Z,23.72
2022-10-07T12:02:51.497Z,23.46
2022-10-07T12:05:51.397Z,23.10
2022-10-07T12:08:30.543Z,22.86
2022-10-07T12:11:47.384Z,22.77
2022-10-07T12:14:43.855Z,22.66
2022-10-07T12:17:24.131Z,22.69
2022-10-07T12:20:45.335Z,22.51
2022-10-07T12:23:40.203Z,22.68
2022-10-07T12:26:46.067Z,22.42
2022-10-07T12:29:48.537Z,22.28
2022-10-07T12:33:04.553Z,22.19
2022-10-07T12:35:53.971Z,22.35
2022-10-07T12:38:33.778Z,22.19
2022-10-07T12:41:17.158Z,22.30
2022-10-07T12:43:52.766Z,22.47
2022-10-07T12:46:25.316Z,22.09
2022-10-07T12:49:05.233Z,22.06
2022-10-07T12:51:40.591Z,21.70
2022-10-07T12:54:20.342Z,21.83
2022-10-07T12:56:51.252Z,21.65
2022-10-07T12:59:47.642Z,21.48
2022-10-07T13:02:38.413Z,21.27
2022-10-07T13:05:39.093Z,21.38
2022-10-07T13:08:40.308Z,21.19
2022-10-07T13:11:47.524Z,21.31
2022-10-07T13:14:24.247Z,21.40
2022-10-07T13:17:02.558Z,21.57
2022-10-07T13:19:39.651Z,21.58
2022-10-07T13:22:18.287Z,21.54
2022-10-07T13:24:51.679Z,21.43
2022-10-07T13:27:24.960Z,20.90
2022-10-07T13:29:55.097Z,20.92
2022-10-07T13:32:29.814Z,21.13
2022-10-07T13:35:01.489Z,20.93
2022-10-07T13:37:36.745Z,20.94
2022-10-07T13:40:22.854Z,21.02
2022-10-07T13:42:59.329Z,20.82
2022-10-07T13:45:30.596Z,20.81
2022-10-07T13:48:00.492Z,20.51
2022-10-07T13:50:32.602Z,20.60
2022-10-07T13:53:05.408Z,20.33
2022-10-07T13:55:37.524Z,20.48
2022-10-07T13:58:08.871Z,20.62
2022-10-07T14:00:45.337Z,20.62
2022-10-07T14:03:18.871Z,20.39
2022-10-07T14:05:52.076Z,20.48
2022-10-07T14:08:28.006Z,20.43
2022-10-07T14:11:05.790Z,20.50
2022-10-07T14:13:38.020Z,20.58
2022-10-07T14:16:08.205Z,20.49
2022-10-07T14:18:38.011Z,20.19
2022-10-07T14:21:17.113Z,20.32
2022-10-07T14:23:49.874Z,20.01
2022-10-07T14:26:19.679Z,20.01
2022-10-07T14:28:49.510Z,19.86
2022-10-07T14:31:34.889Z,20.10
2022-10-07T14:34:27.692Z,19.96
2022-10-07T14:37:04.378Z,19.81
2022-10-07T14:39:39.270Z,19.79
2022-10-07T14:42:14.426Z,19.71
2022-10-07T14:44:44.662Z,19.47
2022-10-07T14:47:16.536Z,19.50
2022-10-07T14:49:46.378Z,19.36
2022-10-07T14:52:25.259Z,19.30
2022-10-07T14:54:58.953Z,19.24
2022-10-07T14:57:29.266Z,19.12
2022-10-07T14:59:59.149Z,19.29
2022-10-07T15:02:29.392Z,19.26
2022-10-07T15:04:59.314Z,19.16
2022-10-07T15:07:29.361Z,19.18
2022-10-07T15:10:01.682Z,19.27
2022-10-07T15:12:31.775Z,19.22
2022-10-07T15:15:01.640Z,19.29
2022-10-07T15:17:31.629Z,19.05
2022-10-07T15:20:01.592Z,19.00
2022-10-07T15:22:31.515Z,19.12
2022-10-07T15:25:03.995Z,19.13
2022-10-07T15:27:34.285Z,19.00
2022-10-07T15:30:04.621Z,18.91
2022-10-07T15:32:34.459Z,18.73
2022-10-07T15:35:04.335Z,18.75
2022-10-07T15:37:34.383Z,18.75
2022-10-07T15:40:08.203Z,18.62
2022-10-07T15:42:38.158Z,18.54
2022-10-07T15:45:10.373Z,18.55
2022-10-07T15:47:40.290Z,18.47
2022-10-07T15:50:10.910Z,18.35
2022-10-07T15:52:40.654Z,18.22
2022-10-07T15:55:13.177Z,18.15
2022-10-07T15:57:42.911Z,18.13
2022-10-07T16:00:14.326Z,18.01
2022-10-07T16:02:44.878Z,17.85
2022-10-07T16:05:14.845Z,18.01
2022-10-07T16:07:44.556Z,17.93
2022-10-07T16:10:16.981Z,17.85
2022-10-07T16:12:47.045Z,17.85
2022-10-07T16:15:24.547Z,17.82
2022-10-07T16:17:54.498Z,17.78
2022-10-07T16:20:28.004Z,17.71
2022-10-07T16:22:57.961Z,17.69
2022-10-07T16:25:30.335Z,17.73
2022-10-07T16:28:12.512Z,17.65
2022-10-07T16:30:50.981Z,17.60
2022-10-07T16:33:21.597Z,17.42
2022-10-07T16:35:51.303Z,17.40
2022-10-07T16:38:21.835Z,17.19
2022-10-07T16:40:57.600Z,17.07
2022-10-07T16:43:27.442Z,16.97
2022-10-07T16:45:57.173Z,17.03
2022-10-07T16:48:27.522Z,17.00
2022-10-07T16:50:58.258Z,17.00
2022-10-07T16:53:28.807Z,17.04
2022-10-07T16:56:04.817Z,17.02
2022-10-07T16:58:34.876Z,16.99
2022-10-07T17:01:04.876Z,16.86
2022-10-07T17:03:34.625Z,16.78
2022-10-07T17:06:04.368Z,16.44
2022-10-07T17:08:39.977Z,16.39
2022-10-07T17:11:28.786Z,16.25
2022-10-07T17:13:59.328Z,16.18
2022-10-07T17:16:30.780Z,16.09
2022-10-07T17:19:00.609Z,16.09
2022-10-07T17:21:30.925Z,16.11
2022-10-07T17:24:00.964Z,16.26
2022-10-07T17:26:33.297Z,16.21
2022-10-07T17:29:04.734Z,16.46
2022-10-07T17:31:34.566Z,16.44
2022-10-07T17:34:05.546Z,16.48
2022-10-07T17:36:36.171Z,16.31
2022-10-07T17:39:06.770Z,16.14
2022-10-07T17:41:40.902Z,16.00
2022-10-07T17:44:12.145Z,15.93
2022-10-07T17:46:43.374Z,15.89
2022-10-07T17:49:15.026Z,15.72
2022-10-07T17:51:45.669Z,15.78
2022-10-07T17:54:16.489Z,15.91
2022-10-07T17:56:51.620Z,15.87
2022-10-07T17:59:21.316Z,15.89
2022-10-07T18:01:51.021Z,15.85
2022-10-07T18:04:24.856Z,15.90
2022-10-07T18:06:54.968Z,15.92
2022-10-07T18:09:24.709Z,16.04
2022-10-07T18:12:09.428Z,15.84
2022-10-07T18:14:53.984Z,15.71
2022-10-07T18:17:24.975Z,15.81
2022-10-07T18:19:54.827Z,15.93
2022-10-07T18:22:24.747Z,15.85
2022-10-07T18:24:57.268Z,15.76
2022-10-07T18:27:29.945Z,15.89
2022-10-07T18:30:00.753Z,15.77
2022-10-07T18:32:30.446Z,15.85
2022-10-07T18:35:00.141Z,15.83
2022-10-07T18:37:30.293Z,15.84
2022-10-07T18:40:00.860Z,15.70
2022-10-07T18:42:33.213Z,15.76
2022-10-07T18:45:02.976Z,15.74
2022-10-07T18:47:32.639Z,15.74
2022-10-07T18:50:02.614Z,15.64
2022-10-07T18:52:32.359Z,15.72
2022-10-07T18:55:02.062Z,15.65
2022-10-07T18:57:34.458Z,15.70
2022-10-07T19:00:04.128Z,15.63
2022-10-07T19:02:33.821Z,15.63
2022-10-07T19:05:03.583Z,15.53
2022-10-07T19:07:33.272Z,15.42
2022-10-07T19:10:02.944Z,15.27
2022-10-07T19:13:02.279Z,15.29
2022-10-07T19:15:31.978Z,15.09
2022-10-07T19:18:01.719Z,15.17
2022-10-07T19:20:31.412Z,15.21
2022-10-07T19:23:01.100Z,15.21
2022-10-07T19:25:43.218Z,15.24
2022-10-07T19:28:15.666Z,14.97
2022-10-07T19:30:45.424Z,15.12
2022-10-07T19:33:15.843Z,15.15
2022-10-07T19:35:45.782Z,15.25
2022-10-07T19:38:16.254Z,15.32
2022-10-07T19:40:47.138Z,15.29
2022-10-07T19:43:19.417Z,15.06
2022-10-07T19:45:49.168Z,15.23
2022-10-07T19:48:18.867Z,15.21
2022-10-07T19:50:49.000Z,15.20
2022-10-07T19:53:18.657Z,15.30
2022-10-07T19:55:48.563Z,15.19
2022-10-07T19:58:20.802Z,15.16
2022-10-07T20:00:50.588Z,15.22
2022-10-07T20:03:20.351Z,15.15
2022-10-07T20:05:50.051Z,15.18
2022-10-07T20:08:19.983Z,15.11
2022-10-07T20:10:49.635Z,15.13
2022-10-07T20:13:21.968Z,15.14
2022-10-07T20:15:51.684Z,15.11
2022-10-07T20:18:21.402Z,15.14
2022-10-07T20:20:51.085Z,15.06
2022-10-07T20:23:20.765Z,14.97
2022-10-07T20:25:50.433Z,14.94
2022-10-07T20:28:22.814Z,14.99
2022-10-07T20:30:52.535Z,14.90
2022-10-07T20:33:22.217Z,14.95
2022-10-07T20:35:52.908Z,14.96
2022-10-07T20:38:22.577Z,14.90
2022-10-07T20:41:22.316Z,14.90
2022-10-07T20:43:55.785Z,14.96
2022-10-07T20:46:25.613Z,14.93
2022-10-07T20:48:55.339Z,14.77
2022-10-07T20:51:27.246Z,14.77
2022-10-07T20:53:56.985Z,14.70
2022-10-07T20:56:26.763Z,14.78
2022-10-07T20:58:59.422Z,14.66
2022-10-07T21:01:29.194Z,14.65
2022-10-07T21:03:59.207Z,14.73
2022-10-07T21:06:28.966Z,14.58
2022-10-07T21:08:58.622Z,14.71
2022-10-07T21:11:28.388Z,14.73
2022-10-07T21:14:00.780Z,14.73
2022-10-07T21:16:32.527Z,14.77
2022-10-07T21:19:02.398Z,14.85
2022-10-07T21:21:32.270Z,14.71
2022-10-07T21:24:02.058Z,14.79
2022-10-07T21:26:31.816Z,14.64
2022-10-07T21:29:04.306Z,14.65
2022-10-07T21:31:35.823Z,14.59
2022-10-07T21:34:08.091Z,14.51
2022-10-07T21:36:40.436Z,14.39
2022-10-07T21:39:10.544Z,14.41
2022-10-07T21:41:40.659Z,14.43
2022-10-07T21:44:15.384Z,14.42
2022-10-07T21:46:45.778Z,14.26
2022-10-07T21:49:16.354Z,14.39
2022-10-07T21:51:47.298Z,14.38
2022-10-07T21:54:17.622Z,14.33
2022-10-07T21:56:47.775Z,14.40
2022-10-07T21:59:20.107Z,14.16
2022-10-07T22:01:49.975Z,14.35
2022-10-07T22:04:21.471Z,14.19
2022-10-07T22:07:03.603Z,14.15
2022-10-07T22:09:33.634Z,14.12
2022-10-07T22:12:03.345Z,14.26
2022-10-07T22:14:35.760Z,14.13
2022-10-07T22:17:05.427Z,14.08
2022-10-07T22:19:35.195Z,14.12
2022-10-07T22:22:04.941Z,14.20
2022-10-07T22:24:34.784Z,14.23
2022-10-07T22:27:04.616Z,14.11
2022-10-07T22:29:37.258Z,14.14
2022-10-07T22:32:07.551Z,14.28
2022-10-07T22:34:49.676Z,14.10
2022-10-07T22:37:19.409Z,14.11
2022-10-07T22:39:49.177Z,14.14
2022-10-07T22:42:18.999Z,14.21
2022-10-07T22:44:51.316Z,14.19
2022-10-07T22:47:21.302Z,14.30
2022-10-07T22:49:51.116Z,14.31
2022-10-07T22:52:21.075Z,14.21
2022-10-07T22:54:51.219Z,14.29
2022-10-07T22:57:20.889Z,14.32
2022-10-07T22:59:53.949Z,14.37
2022-10-07T23:02:23.755Z,14.44
2022-10-07T23:04:53.413Z,14.37
2022-10-07T23:07:23.094Z,14.45
2022-10-07T23:09:52.811Z,14.51
2022-10-07T23:12:22.484Z,14.52
2022-10-07T23:14:54.863Z,14.55
2022-10-07T23:17:24.545Z,14.54
2022-10-07T23:19:54.550Z,14.62
2022-10-07T23:22:24.230Z,14.49
2022-10-07T23:24:54.040Z,14.64
2022-10-07T23:27:24.566Z,14.58
2022-10-07T23:29:56.805Z,14.59
2022-10-07T23:32:27.429Z,14.42
2022-10-07T23:34:57.104Z,14.39
2022-10-07T23:37:27.012Z,14.44
2022-10-07T23:39:56.701Z,14.58
2022-10-07T23:42:26.471Z,14.56
2022-10-07T23:45:01.648Z,14.56
2022-10-07T23:47:31.387Z,14.54
2022-10-07T23:50:01.747Z,14.48
2022-10-07T23:52:31.670Z,14.60
2022-10-07T23:55:01.361Z,14.49
2022-10-07T23:57:31.003Z,14.59
